Time;durP1;ratioP1;P1;durP2;ratioP2;P2;SDS_P1;SDS_P2;PMS_P1;PMS_P2;Temp;Humidity;BMP_temperature;BMP_pressure;BME280_temperature;BME280_humidity;BME280_pressure;Samples;Min_cycle;Max_cycle;Signal;HPM_P1;HPM_P2
2022/04/18 00:04:53;;;;;;;27.73;13.88;;;8.70;64.00;;;;;;10439695;28;20537;-84
2022/04/18 00:09:53;;;;;;;28.05;13.82;;;8.10;63.80;;;;;;10450432;28;20032;-84
2022/04/18 00:14:54;;;;;;;25.90;13.68;;;8.10;64.00;;;;;;10450138;28;20037;-85
2022/04/18 00:19:55;;;;;;;26.75;12.80;;;8.00;64.00;;;;;;10449878;28;20445;-84
2022/04/18 00:24:56;;;;;;;21.30;12.18;;;7.90;64.00;;;;;;10445680;28;20053;-84
2022/04/18 00:30:15;;;;;;;20.48;11.82;;;8.70;64.60;;;;;;10431570;28;20120;-84
2022/04/18 00:35:16;;;;;;;24.60;12.63;;;7.80;64.20;;;;;;10435991;28;20043;-84
2022/04/18 00:40:17;;;;;;;20.42;11.63;;;8.00;64.40;;;;;;10430966;28;20063;-84
2022/04/18 00:45:18;;;;;;;20.55;11.60;;;8.00;64.40;;;;;;10448680;28;20595;-84
2022/04/18 00:50:19;;;;;;;19.70;11.88;;;7.60;64.30;;;;;;10430542;28;20057;-84
2022/04/18 00:55:20;;;;;;;21.05;12.07;;;7.60;64.40;;;;;;10426984;28;20480;-84
2022/04/18 01:00:22;;;;;;;19.85;11.90;;;8.10;64.60;;;;;;10397289;28;20051;-84
2022/04/18 01:05:22;;;;;;;19.98;12.07;;;8.30;64.90;;;;;;10448018;28;20136;-85
2022/04/18 01:10:23;;;;;;;22.45;12.60;;;8.20;64.80;;;;;;10424972;28;20044;-84
2022/04/18 01:15:24;;;;;;;21.00;12.77;;;7.50;64.70;;;;;;10447651;28;20114;-84
2022/04/18 01:20:34;;;;;;;19.42;11.88;;;7.40;64.60;;;;;;10445761;28;20710;-84
2022/04/18 01:30:58;;;;;;;26.65;12.65;;;7.30;64.80;;;;;;10443733;28;20044;-84
2022/04/18 01:35:59;;;;;;;22.23;12.20;;;8.00;65.40;;;;;;10446753;28;20045;-84
2022/04/18 01:40:59;;;;;;;22.00;12.50;;;7.30;65.00;;;;;;10440904;28;20590;-84
2022/04/18 01:46:00;;;;;;;20.13;12.48;;;7.20;65.20;;;;;;10425858;28;20053;-84
2022/04/18 01:51:01;;;;;;;20.10;12.43;;;7.10;65.50;;;;;;10428319;28;20487;-85
2022/04/18 01:56:02;;;;;;;26.25;14.05;;;7.00;65.50;;;;;;10428470;28;20518;-84
2022/04/18 02:01:03;;;;;;;24.13;14.20;;;7.60;65.90;;;;;;10445570;28;20646;-85
2022/04/18 02:06:15;;;;;;;22.35;13.07;;;6.90;65.50;;;;;;10434470;28;20033;-84
2022/04/18 02:11:16;;;;;;;21.83;12.90;;;7.60;66.70;;;;;;10445671;28;20045;-84
2022/04/18 02:16:17;;;;;;;22.75;13.90;;;6.80;66.40;;;;;;10445886;28;20495;-84
2022/04/18 02:21:19;;;;;;;26.48;14.95;;;7.20;66.50;;;;;;10445389;28;20041;-84
2022/04/18 02:26:20;;;;;;;22.75;13.35;;;6.80;66.40;;;;;;10444756;28;20045;-84
2022/04/18 02:31:20;;;;;;;24.45;13.93;;;6.60;66.20;;;;;;10443878;28;20390;-84
2022/04/18 02:36:24;;;;;;;25.00;13.18;;;6.60;66.30;;;;;;10442381;28;20230;-83
2022/04/18 02:41:28;;;;;;;24.75;13.57;;;6.60;66.50;;;;;;10411034;28;20072;-84
2022/04/18 02:46:28;;;;;;;24.25;14.13;;;7.00;66.80;;;;;;10444227;28;20621;-84
2022/04/18 02:51:29;;;;;;;22.27;13.13;;;6.50;66.60;;;;;;10440022;28;20037;-84
2022/04/18 02:56:31;;;;;;;24.98;14.52;;;6.20;66.50;;;;;;10443973;28;20491;-84
2022/04/18 03:01:31;;;;;;;26.88;14.52;;;6.80;66.80;;;;;;10413158;28;20095;-85
2022/04/18 03:06:35;;;;;;;26.65;15.05;;;6.40;66.50;;;;;;10405909;28;20448;-85
2022/04/18 03:11:36;;;;;;;27.95;14.68;;;6.00;66.40;;;;;;10443401;28;20089;-85
2022/04/18 03:16:36;;;;;;;28.40;14.48;;;7.20;67.20;;;;;;10425588;28;20048;-84
2022/04/18 03:21:37;;;;;;;31.27;14.45;;;6.20;66.70;;;;;;10409269;28;20128;-85
2022/04/18 03:26:38;;;;;;;29.45;14.95;;;6.60;67.00;;;;;;10422102;28;20041;-84
2022/04/18 03:31:39;;;;;;;26.20;14.18;;;6.90;67.20;;;;;;10441467;28;20037;-84
2022/04/18 03:42:02;;;;;;;26.70;13.95;;;6.00;66.30;;;;;;10438189;28;20530;-85
2022/04/18 03:47:03;;;;;;;26.65;14.07;;;6.00;66.90;;;;;;10450903;28;20509;-84
2022/04/18 03:52:07;;;;;;;27.20;14.80;;;5.90;66.90;;;;;;10428380;28;20029;-85
2022/04/18 03:57:08;;;;;;;21.52;13.50;;;6.50;67.40;;;;;;10432534;28;20044;-85
2022/04/18 04:02:09;;;;;;;23.55;13.07;;;5.80;67.10;;;;;;10432257;28;20091;-84
2022/04/18 04:07:12;;;;;;;23.85;13.73;;;6.30;67.40;;;;;;10432008;28;20136;-85
2022/04/18 04:12:13;;;;;;;27.80;14.93;;;5.70;67.20;;;;;;10448286;28;20506;-84
2022/04/18 04:17:14;;;;;;;24.90;14.15;;;5.70;67.30;;;;;;10449576;28;20033;-84
2022/04/18 04:22:14;;;;;;;26.40;13.57;;;5.70;67.40;;;;;;10443454;28;20045;-84
2022/04/18 04:27:15;;;;;;;29.20;14.52;;;6.30;67.80;;;;;;10448239;28;20615;-85
2022/04/18 04:32:17;;;;;;;27.13;14.05;;;5.60;67.50;;;;;;10434407;28;20485;-84
2022/04/18 04:37:18;;;;;;;27.48;15.13;;;5.60;67.60;;;;;;10419221;28;20048;-84
2022/04/18 04:42:19;;;;;;;26.63;14.02;;;6.60;68.20;;;;;;10453345;28;20056;-84
2022/04/18 04:47:20;;;;;;;30.40;15.93;;;5.50;67.70;;;;;;10427100;28;20524;-84
2022/04/18 04:52:20;;;;;;;30.27;15.15;;;6.40;68.30;;;;;;10416817;28;20037;-84
2022/04/18 04:57:21;;;;;;;30.30;15.38;;;5.40;67.90;;;;;;10446251;28;20032;-85
2022/04/18 05:02:23;;;;;;;23.50;14.52;;;6.20;68.50;;;;;;10397190;28;20045;-84
2022/04/18 05:07:24;;;;;;;25.95;14.40;;;5.60;68.10;;;;;;10446991;28;20033;-84
2022/04/18 05:12:28;;;;;;;24.05;14.30;;;5.40;68.00;;;;;;10437769;28;20063;-83
2022/04/18 05:17:31;;;;;;;29.35;14.15;;;5.40;68.10;;;;;;10420386;28;20037;-83
2022/04/18 05:22:32;;;;;;;26.60;14.85;;;5.40;68.00;;;;;;10439152;28;20395;-83
2022/04/18 05:27:33;;;;;;;27.10;15.45;;;6.50;68.40;;;;;;10430331;28;20033;-83
2022/04/18 05:32:34;;;;;;;23.88;13.73;;;5.70;67.90;;;;;;10429813;28;20128;-84
2022/04/18 05:37:53;;;;;;;26.25;13.90;;;5.90;67.90;;;;;;10424359;28;20650;-84
2022/04/18 05:43:02;;;;;;;25.40;14.57;;;7.10;68.50;;;;;;10433069;28;20473;-84
2022/04/18 05:48:06;;;;;;;23.92;13.13;;;6.00;67.80;;;;;;10435370;28;20060;-84
2022/04/18 05:53:23;;;;;;;24.95;14.13;;;6.00;67.50;;;;;;10382125;28;20065;-84
2022/04/18 05:58:27;;;;;;;24.65;14.68;;;7.30;68.00;;;;;;10401365;28;20096;-83
2022/04/18 06:03:28;;;;;;;24.08;13.68;;;7.30;67.70;;;;;;10400843;28;20111;-83
2022/04/18 06:08:28;;;;;;;25.27;13.32;;;6.60;67.50;;;;;;10391971;28;20030;-83
2022/04/18 06:13:29;;;;;;;24.40;14.13;;;7.50;67.70;;;;;;10384507;28;20048;-83
2022/04/18 06:18:33;;;;;;;23.85;14.13;;;6.90;67.00;;;;;;10380504;28;20056;-83
2022/04/18 06:29:09;;;;;;;26.13;15.18;;;7.00;66.50;;;;;;10344525;23;20046;-83
2022/04/18 06:34:10;;;;;;;28.40;14.90;;;7.40;66.60;;;;;;10311492;28;20059;-83
2022/04/18 06:39:11;;;;;;;26.17;14.05;;;7.70;66.50;;;;;;10293323;28;20129;-83
2022/04/18 06:44:11;;;;;;;23.55;13.60;;;7.90;66.30;;;;;;10283369;28;20423;-84
2022/04/18 06:49:12;;;;;;;24.80;13.82;;;8.20;66.10;;;;;;10269024;28;20544;-84
2022/04/18 06:54:13;;;;;;;22.65;13.57;;;8.70;66.10;;;;;;10279189;28;20047;-84
2022/04/18 06:59:14;;;;;;;26.67;13.55;;;9.10;66.00;;;;;;10270600;28;20035;-84
2022/04/18 07:04:15;;;;;;;20.67;12.38;;;8.80;65.60;;;;;;10318770;28;20062;-84
2022/04/18 07:09:15;;;;;;;19.77;12.73;;;10.20;66.20;;;;;;10316404;28;20101;-85
2022/04/18 07:14:16;;;;;;;19.85;12.38;;;9.30;65.50;;;;;;10276706;28;20047;-84
2022/04/18 07:19:17;;;;;;;22.70;12.65;;;9.50;65.40;;;;;;10306257;28;20712;-85
2022/04/18 07:24:17;;;;;;;18.23;12.38;;;9.60;65.20;;;;;;10307542;28;20056;-84
2022/04/18 07:29:18;;;;;;;22.40;12.95;;;9.80;65.10;;;;;;10285140;28;20066;-85
2022/04/18 07:34:19;;;;;;;18.50;11.18;;;10.40;65.10;;;;;;10280461;28;20043;-85
2022/04/18 07:39:19;;;;;;;18.98;11.60;;;10.20;64.60;;;;;;10322058;28;20049;-85
2022/04/18 07:44:22;;;;;;;22.58;12.68;;;10.50;64.60;;;;;;10285309;28;20080;-85
2022/04/18 07:49:22;;;;;;;24.13;13.00;;;10.50;64.60;;;;;;10290831;28;20047;-84
2022/04/18 07:54:23;;;;;;;18.67;11.18;;;10.70;64.70;;;;;;10295918;28;20133;-84
2022/04/18 07:59:24;;;;;;;18.13;11.32;;;10.90;64.60;;;;;;10298322;28;20097;-84
2022/04/18 08:04:25;;;;;;;16.15;11.02;;;11.20;64.50;;;;;;10277095;28;20051;-85
2022/04/18 08:09:25;;;;;;;20.45;10.90;;;11.40;64.60;;;;;;10285232;28;20784;-84
2022/04/18 08:14:26;;;;;;;20.38;11.15;;;11.70;64.50;;;;;;10266944;28;20051;-85
2022/04/18 08:19:30;;;;;;;14.80;9.30;;;11.90;64.10;;;;;;10269621;28;20042;-84
2022/04/18 08:24:30;;;;;;;14.10;8.55;;;12.10;64.00;;;;;;10282391;28;20043;-85
2022/04/18 08:29:32;;;;;;;15.23;8.95;;;12.40;63.00;;;;;;10293298;28;20081;-84
2022/04/18 08:34:32;;;;;;;12.50;8.25;;;12.70;61.70;;;;;;10316534;28;20416;-85
2022/04/18 08:39:33;;;;;;;13.65;8.80;;;12.90;61.20;;;;;;10259529;28;20041;-85
2022/04/18 08:44:36;;;;;;;15.43;8.63;;;13.10;61.20;;;;;;10321721;28;20070;-85
2022/04/18 08:54:57;;;;;;;12.90;8.65;;;13.60;60.00;;;;;;10311014;28;20708;-85
2022/04/18 08:59:58;;;;;;;13.48;8.35;;;13.90;60.20;;;;;;10286262;28;20544;-85
2022/04/18 09:04:58;;;;;;;10.60;7.47;;;14.20;59.70;;;;;;10277088;28;20041;-85
2022/04/18 09:09:59;;;;;;;11.95;8.07;;;14.50;59.30;;;;;;10321507;28;20039;-86
2022/04/18 09:15:01;;;;;;;11.65;7.90;;;14.70;59.00;;;;;;10270364;28;20043;-86
2022/04/18 09:20:09;;;;;;;13.70;8.18;;;15.00;58.40;;;;;;10273783;28;20133;-85
2022/04/18 09:25:13;;;;;;;10.20;7.70;;;15.20;58.20;;;;;;10283562;28;20051;-85
2022/04/18 09:30:16;;;;;;;13.35;7.88;;;15.60;57.80;;;;;;10307937;28;20047;-85
2022/04/18 09:35:23;;;;;;;12.88;8.02;;;15.90;57.40;;;;;;10309364;28;20070;-86
2022/04/18 09:40:24;;;;;;;10.75;6.82;;;16.20;57.10;;;;;;10287519;28;20042;-86
2022/04/18 09:45:25;;;;;;;12.93;7.18;;;16.70;57.10;;;;;;10300766;28;20504;-86
2022/04/18 09:55:47;;;;;;;8.95;5.65;;;17.60;55.60;;;;;;10276897;28;20034;-86
2022/04/18 10:00:49;;;;;;;10.13;5.35;;;18.00;54.80;;;;;;10307513;28;20042;-86
2022/04/18 10:05:51;;;;;;;8.32;5.10;;;18.30;54.00;;;;;;10288524;28;20141;-87
2022/04/18 10:10:53;;;;;;;6.75;4.93;;;18.50;52.90;;;;;;10273132;28;20038;-87
2022/04/18 10:15:54;;;;;;;8.10;4.93;;;18.90;53.00;;;;;;10278579;28;20097;-87
2022/04/18 10:21:07;;;;;;;5.97;4.43;;;19.20;52.10;;;;;;10300544;28;20114;-86
2022/04/18 10:26:22;;;;;;;7.45;4.80;;;19.60;51.40;;;;;;10289284;28;20074;-87
2022/04/18 10:31:29;;;;;;;5.60;3.90;;;20.10;51.30;;;;;;10301678;28;20050;-87
2022/04/18 10:36:31;;;;;;;4.30;3.20;;;20.60;50.30;;;;;;10289891;28;20041;-89
2022/04/18 10:41:39;;;;;;;7.80;3.70;;;21.20;50.20;;;;;;10299861;28;20035;-87
2022/04/18 10:47:03;;;;;;;6.28;3.60;;;21.70;47.70;;;;;;10288809;28;20058;-87
2022/04/18 10:52:09;;;;;;;3.33;2.22;;;21.80;47.10;;;;;;10286984;28;20050;-87
2022/04/18 10:57:12;;;;;;;4.22;2.75;;;21.80;47.00;;;;;;10281626;28;20393;-87
2022/04/18 11:02:39;;;;;;;5.40;4.00;;;22.10;46.80;;;;;;10285108;28;20051;-87
2022/04/18 11:07:41;;;;;;;4.30;2.70;;;22.60;45.20;;;;;;10303054;28;20037;-88
2022/04/18 11:12:50;;;;;;;6.03;3.47;;;22.90;46.10;;;;;;10291779;28;20035;-88
2022/04/18 11:17:51;;;;;;;4.30;2.63;;;23.30;44.30;;;;;;10297208;28;20022;-88
2022/04/18 11:23:15;;;;;;;4.65;3.08;;;23.40;44.90;;;;;;10287420;28;20397;-88
2022/04/18 11:28:16;;;;;;;6.63;3.70;;;23.60;42.10;;;;;;10275023;28;20060;-89
2022/04/18 11:33:17;;;;;;;5.70;3.40;;;23.70;44.00;;;;;;10283993;28;20053;-89
2022/04/18 11:38:25;;;;;;;4.75;3.88;;;24.30;44.10;;;;;;10300713;28;20047;-88
2022/04/18 11:43:29;;;;;;;6.55;3.92;;;24.70;41.40;;;;;;10316451;28;20215;-89
2022/04/18 11:48:30;;;;;;;5.45;3.97;;;24.90;43.80;;;;;;10281158;28;20027;-89
2022/04/18 11:53:35;;;;;;;7.38;4.22;;;25.40;43.00;;;;;;10317173;28;20701;-89
2022/04/18 11:58:40;;;;;;;6.82;4.35;;;25.70;43.10;;;;;;10269100;28;20043;-88
2022/04/18 12:09:01;;;;;;;5.43;3.97;;;25.80;42.00;;;;;;10320212;28;20077;-89
2022/04/18 12:14:02;;;;;;;4.90;4.15;;;25.30;42.00;;;;;;10324906;28;20053;-88
2022/04/18 12:19:04;;;;;;;5.65;4.28;;;25.30;41.40;;;;;;10294029;28;20034;-89
2022/04/18 12:24:07;;;;;;;5.85;3.58;;;25.20;41.70;;;;;;10315759;28;20045;-88
2022/04/18 12:29:10;;;;;;;5.60;4.03;;;25.60;42.60;;;;;;10301168;28;20050;-90
2022/04/18 12:34:19;;;;;;;6.13;3.80;;;25.80;41.40;;;;;;10312262;28;20050;-89
2022/04/18 12:39:25;;;;;;;4.95;3.67;;;25.70;39.10;;;;;;10315964;28;20506;-88
2022/04/18 12:44:27;;;;;;;5.32;4.47;;;25.70;41.70;;;;;;10307606;28;20452;-89
2022/04/18 12:49:28;;;;;;;4.05;3.53;;;25.90;40.30;;;;;;10323536;28;20022;-88
2022/04/18 12:54:29;;;;;;;4.63;3.60;;;25.90;41.00;;;;;;10321134;28;20046;-87
2022/04/18 12:59:37;;;;;;;6.00;3.42;;;26.00;40.40;;;;;;10290404;28;20601;-88
2022/04/18 13:04:37;;;;;;;;;;;26.10;40.30;;;;;;10310453;28;20074;-86
2022/04/18 13:09:38;;;;;;;4.97;3.60;;;26.00;38.00;;;;;;10319706;28;20036;-86
2022/04/18 13:15:03;;;;;;;4.55;3.28;;;26.10;40.70;;;;;;10282032;28;20533;-88
2022/04/18 13:20:07;;;;;;;8.60;4.53;;;26.80;40.80;;;;;;10276702;28;20034;-88
2022/04/18 13:25:11;;;;;;;4.18;3.75;;;27.00;40.10;;;;;;10296501;28;20090;-88
2022/04/18 13:30:13;;;;;;;6.72;3.67;;;26.90;40.20;;;;;;10317731;28;20058;-88
2022/04/18 13:35:14;;;;;;;5.78;4.55;;;27.30;40.30;;;;;;10296937;28;20497;-88
2022/04/18 13:40:15;;;;;;;3.67;3.13;;;27.40;39.30;;;;;;10318040;28;20046;-88
2022/04/18 13:45:16;;;;;;;3.80;3.10;;;27.50;39.90;;;;;;10296295;28;20139;-87
2022/04/18 13:50:17;;;;;;;5.18;3.58;;;27.70;39.50;;;;;;10321057;28;20190;-88
2022/04/18 13:55:17;;;;;;;5.40;3.28;;;27.20;39.10;;;;;;10317255;28;20046;-88
2022/04/18 14:00:18;;;;;;;6.07;3.17;;;27.10;39.00;;;;;;10310080;28;20033;-89
2022/04/18 14:05:19;;;;;;;3.05;2.50;;;26.70;38.60;;;;;;10283069;28;20046;-87
2022/04/18 14:10:20;;;;;;;3.53;2.80;;;26.40;39.30;;;;;;10275854;28;20662;-88
2022/04/18 14:20:40;;;;;;;5.35;2.80;;;26.30;38.60;;;;;;10308718;28;20130;-87
2022/04/18 14:25:41;;;;;;;4.45;2.72;;;26.50;38.50;;;;;;10279561;28;20049;-87
2022/04/18 14:30:43;;;;;;;3.50;2.60;;;26.20;38.20;;;;;;10307601;28;20046;-87
2022/04/18 14:35:44;;;;;;;3.40;2.70;;;25.80;38.80;;;;;;10257598;28;20654;-87
2022/04/18 14:40:45;;;;;;;4.45;3.67;;;25.70;38.70;;;;;;10297943;28;20061;-87
2022/04/18 14:45:45;;;;;;;5.63;3.55;;;25.30;38.80;;;;;;10288986;28;20061;-87
2022/04/18 14:50:47;;;;;;;6.15;3.60;;;24.90;39.10;;;;;;10314860;28;20050;-86
2022/04/18 14:55:47;;;;;;;5.88;3.80;;;24.60;39.50;;;;;;10269741;28;20089;-87
2022/04/18 15:00:48;;;;;;;6.28;3.55;;;24.10;39.80;;;;;;10288106;28;20052;-86
2022/04/18 15:05:49;;;;;;;7.05;3.40;;;23.90;39.80;;;;;;10283173;28;20051;-86
2022/04/18 15:10:51;;;;;;;4.32;3.28;;;23.70;40.20;;;;;;10301668;28;20456;-86
2022/04/18 15:15:52;;;;;;;4.55;3.28;;;23.40;40.50;;;;;;10278539;28;20039;-86
2022/04/18 15:20:54;;;;;;;4.90;3.42;;;23.00;40.50;;;;;;10265937;28;20164;-87
2022/04/18 15:25:55;;;;;;;5.45;3.60;;;22.60;40.90;;;;;;10297311;28;20460;-87
2022/04/18 15:36:15;;;;;;;5.72;3.65;;;22.00;41.30;;;;;;10289875;28;20572;-85
2022/04/18 15:41:16;;;;;;;7.07;3.60;;;21.80;41.90;;;;;;10286592;28;20109;-85
2022/04/18 15:46:20;;;;;;;4.82;2.90;;;21.80;42.30;;;;;;10292275;28;20105;-85
2022/04/18 15:51:20;;;;;;;4.50;2.95;;;21.90;42.80;;;;;;10267813;28;20096;-85
2022/04/18 15:56:21;;;;;;;14.98;3.20;;;21.80;42.50;;;;;;10287762;28;20080;-85
2022/04/18 16:01:22;;;;;;;4.00;2.75;;;21.50;42.40;;;;;;10301364;28;20629;-84
2022/04/18 16:06:25;;;;;;;3.80;2.55;;;21.40;42.90;;;;;;10267575;28;20039;-85
2022/04/18 16:11:31;;;;;;;6.30;3.17;;;21.40;43.10;;;;;;10306464;28;20026;-85
2022/04/18 16:16:32;;;;;;;5.45;3.30;;;21.20;43.10;;;;;;10303955;28;20038;-84
2022/04/18 16:21:33;;;;;;;3.90;3.10;;;21.00;43.00;;;;;;10318950;28;20485;-84
2022/04/18 16:26:34;;;;;;;4.35;3.05;;;20.80;42.80;;;;;;10298057;28;20052;-84
2022/04/18 16:31:50;;;;;;;4.82;2.97;;;20.70;43.30;;;;;;10309754;28;20129;-85
2022/04/18 16:36:52;;;;;;;4.13;3.03;;;20.60;43.80;;;;;;10300672;28;20406;-85
2022/04/18 16:47:12;;;;;;;5.28;3.58;;;20.50;43.90;;;;;;10299323;28;20082;-84
2022/04/18 16:52:15;;;;;;;5.50;3.25;;;20.40;44.40;;;;;;10287370;28;20130;-85
2022/04/18 16:57:16;;;;;;;5.43;3.83;;;20.40;44.90;;;;;;10270783;28;20049;-85
2022/04/18 17:02:19;;;;;;;5.53;3.67;;;20.30;45.40;;;;;;10299938;28;20055;-85
2022/04/18 17:07:20;;;;;;;5.53;4.13;;;20.70;46.00;;;;;;10281529;28;20062;-85
2022/04/18 17:12:21;;;;;;;4.72;3.15;;;20.20;45.70;;;;;;10320654;28;20125;-85
2022/04/18 17:17:21;;;;;;;4.13;3.30;;;20.20;46.20;;;;;;10299616;28;20031;-85
2022/04/18 17:22:25;;;;;;;5.18;3.22;;;20.10;46.50;;;;;;10297809;28;20038;-85
2022/04/18 17:27:28;;;;;;;4.55;3.10;;;20.00;46.80;;;;;;10298952;28;20041;-85
2022/04/18 17:32:28;;;;;;;6.13;3.75;;;19.90;47.10;;;;;;10255987;28;20102;-86
2022/04/18 17:37:29;;;;;;;4.88;3.22;;;19.80;47.30;;;;;;10243046;28;20043;-85
2022/04/18 17:42:30;;;;;;;5.85;3.65;;;19.70;47.60;;;;;;10255991;28;21155;-85
2022/04/18 17:47:32;;;;;;;5.60;3.90;;;19.50;47.80;;;;;;10258618;28;20031;-85
2022/04/18 17:52:35;;;;;;;4.88;3.65;;;19.40;48.00;;;;;;10252168;28;20038;-84
2022/04/18 17:57:36;;;;;;;6.00;4.07;;;19.20;48.20;;;;;;10244068;28;20045;-84
2022/04/18 18:02:39;;;;;;;5.35;4.43;;;19.10;48.50;;;;;;10278153;28;20031;-84
2022/04/18 18:07:40;;;;;;;6.95;4.03;;;18.90;48.70;;;;;;10253075;28;20043;-84
2022/04/18 18:12:43;;;;;;;5.97;3.70;;;18.80;48.90;;;;;;10246658;28;20109;-84
2022/04/18 18:17:47;;;;;;;6.03;3.75;;;18.60;49.40;;;;;;10242183;28;20042;-84
2022/04/18 18:22:48;;;;;;;6.03;3.65;;;18.40;50.40;;;;;;10257406;28;20469;-84
2022/04/18 18:27:50;;;;;;;7.70;4.63;;;18.20;50.40;;;;;;10257243;28;20054;-85
2022/04/18 18:32:53;;;;;;;5.85;3.78;;;18.00;50.60;;;;;;10277994;28;20395;-85
2022/04/18 18:37:57;;;;;;;4.28;3.42;;;17.80;50.80;;;;;;10282202;28;20081;-84
2022/04/18 18:42:58;;;;;;;5.38;3.70;;;17.60;51.20;;;;;;10304224;28;20050;-84
2022/04/18 18:48:00;;;;;;;5.63;3.95;;;17.40;51.60;;;;;;10282499;28;20038;-84
2022/04/18 18:53:02;;;;;;;7.05;4.30;;;17.20;52.20;;;;;;10273126;28;20059;-84
2022/04/18 18:58:02;;;;;;;6.03;4.00;;;17.00;52.40;;;;;;10294978;28;20034;-84
2022/04/18 19:03:04;;;;;;;9.60;4.60;;;16.80;52.50;;;;;;10288328;28;20300;-84
2022/04/18 19:08:08;;;;;;;7.85;4.53;;;16.60;53.00;;;;;;10302013;28;20041;-84
2022/04/18 19:13:10;;;;;;;5.30;3.63;;;16.40;53.50;;;;;;10281296;28;20051;-84
2022/04/18 19:28:54;;;;;;;5.95;4.05;;;15.80;54.50;;;;;;10310538;28;20214;-84
2022/04/18 19:33:56;;;;;;;5.20;3.97;;;15.60;54.80;;;;;;10319228;28;20034;-84
2022/04/18 19:38:56;;;;;;;7.80;4.85;;;15.40;55.20;;;;;;10297633;28;20165;-84
2022/04/18 19:43:58;;;;;;;10.05;4.55;;;15.20;55.50;;;;;;10302122;28;20536;-84
2022/04/18 19:48:59;;;;;;;10.18;5.00;;;15.00;55.80;;;;;;10309244;28;20031;-84
2022/04/18 19:54:02;;;;;;;9.52;5.55;;;14.90;56.40;;;;;;10308860;28;20038;-84
2022/04/18 19:59:03;;;;;;;7.72;5.65;;;14.70;56.70;;;;;;10322317;28;20034;-84
2022/04/18 20:04:05;;;;;;;8.35;5.38;;;14.50;57.20;;;;;;10295018;28;20769;-84
2022/04/18 20:09:07;;;;;;;8.75;5.88;;;14.30;57.60;;;;;;10306009;28;20035;-83
2022/04/18 20:14:07;;;;;;;7.20;5.13;;;14.10;57.80;;;;;;10309215;28;20104;-84
2022/04/18 20:19:09;;;;;;;9.48;5.00;;;14.00;58.30;;;;;;10309169;28;20039;-84
2022/04/18 20:24:10;;;;;;;8.57;5.25;;;13.80;58.60;;;;;;10296075;28;20047;-84
2022/04/18 20:29:11;;;;;;;11.63;4.75;;;13.70;59.00;;;;;;10283442;28;20235;-84
2022/04/18 20:34:12;;;;;;;8.48;5.47;;;13.50;59.50;;;;;;10293293;28;20328;-84
2022/04/18 20:39:15;;;;;;;9.75;6.10;;;13.50;60.00;;;;;;10316421;28;20042;-83
2022/04/18 20:44:23;;;;;;;9.07;6.20;;;13.10;59.80;;;;;;10281471;28;20061;-84
2022/04/18 20:49:24;;;;;;;12.65;6.90;;;13.20;59.90;;;;;;10275931;28;20031;-84
2022/04/18 20:59:43;;;;;;;13.23;8.23;;;12.80;60.00;;;;;;10292897;28;20047;-84
2022/04/18 21:04:45;;;;;;;12.35;8.15;;;12.70;60.30;;;;;;10273310;28;20042;-84
2022/04/18 21:09:46;;;;;;;14.38;8.38;;;12.60;60.10;;;;;;10275583;28;20042;-84
2022/04/18 21:14:57;;;;;;;14.10;8.55;;;12.50;60.20;;;;;;10299347;28;20511;-84
2022/04/18 21:19:58;;;;;;;10.35;7.75;;;12.40;60.30;;;;;;10265964;28;20080;-84
2022/04/18 21:24:59;;;;;;;11.00;7.40;;;12.30;60.30;;;;;;10280370;28;20039;-84
2022/04/18 21:30:00;;;;;;;11.10;7.68;;;12.30;60.50;;;;;;10304025;28;20113;-85
2022/04/18 21:35:01;;;;;;;14.63;8.27;;;12.20;60.80;;;;;;10276072;28;20411;-84
2022/04/18 21:40:05;;;;;;;13.77;8.52;;;12.10;61.00;;;;;;10302118;28;20038;-85
2022/04/18 21:45:07;;;;;;;15.63;9.18;;;12.00;61.20;;;;;;10317582;28;20097;-84
2022/04/18 21:50:08;;;;;;;12.43;7.78;;;11.90;61.30;;;;;;10250418;28;20039;-84
2022/04/18 21:55:12;;;;;;;13.80;8.50;;;11.80;61.50;;;;;;10267112;28;20037;-84
2022/04/18 22:00:24;;;;;;;15.13;8.70;;;11.80;61.90;;;;;;10313461;28;20038;-84
2022/04/18 22:05:24;;;;;;;13.88;8.48;;;11.70;62.20;;;;;;10278272;28;20054;-84
2022/04/18 22:10:27;;;;;;;13.85;7.93;;;11.50;62.20;;;;;;10268920;28;20065;-84
2022/04/18 22:15:28;;;;;;;12.70;7.95;;;11.40;62.50;;;;;;10263027;28;20142;-84
2022/04/18 22:25:48;;;;;;;12.73;7.75;;;11.30;62.90;;;;;;10317388;28;20354;-84
2022/04/18 22:30:49;;;;;;;12.77;7.97;;;11.20;63.00;;;;;;10298980;28;20054;-84
2022/04/18 22:35:50;;;;;;;13.00;8.35;;;11.10;63.30;;;;;;10275637;28;20398;-84
2022/04/18 22:40:50;;;;;;;14.57;8.80;;;11.30;63.70;;;;;;10305774;28;20026;-84
2022/04/18 22:45:51;;;;;;;14.15;8.27;;;11.00;63.70;;;;;;10277290;28;20137;-84
2022/04/18 22:50:53;;;;;;;12.70;8.27;;;11.40;64.10;;;;;;10278551;28;20098;-84
2022/04/18 22:55:54;;;;;;;13.18;8.65;;;10.80;64.10;;;;;;10255744;28;20493;-84
2022/04/18 23:00:54;;;;;;;16.08;8.32;;;10.70;64.30;;;;;;10267886;28;20053;-84
2022/04/18 23:05:55;;;;;;;12.65;7.53;;;10.60;64.50;;;;;;10260979;28;20042;-84
2022/04/18 23:10:56;;;;;;;14.30;8.20;;;10.50;64.70;;;;;;10286491;28;20139;-84
2022/04/18 23:15:57;;;;;;;13.93;8.23;;;10.40;64.80;;;;;;10261421;28;20042;-83
2022/04/18 23:21:02;;;;;;;14.13;8.57;;;10.30;64.90;;;;;;10291197;28;20031;-84
2022/04/18 23:26:03;;;;;;;12.65;8.07;;;10.80;65.50;;;;;;10260052;28;20433;-84
2022/04/18 23:31:05;;;;;;;12.98;8.20;;;10.20;65.60;;;;;;10265203;28;20050;-84
2022/04/18 23:36:05;;;;;;;14.20;8.27;;;10.10;66.00;;;;;;10289315;28;20034;-84
2022/04/18 23:46:29;;;;;;;13.15;7.85;;;9.90;66.50;;;;;;10291613;28;20489;-84
2022/04/18 23:51:30;;;;;;;13.23;8.32;;;9.80;66.60;;;;;;10259889;28;20039;-84
2022/04/18 23:56:31;;;;;;;12.73;8.30;;;9.80;66.80;;;;;;10288922;28;20420;-84
